createdAt,value
2017-07-20T00:00:42.080Z,96.60
2017-07-20T00:03:09.562Z,96.90
2017-07-20T00:05:37.018Z,96.90
2017-07-20T00:08:04.448Z,96.90
2017-07-20T00:10:31.868Z,97.00
2017-07-20T00:12:59.307Z,97.30
2017-07-20T00:15:26.734Z,97.40
2017-07-20T00:17:54.168Z,97.40
2017-07-20T00:20:21.594Z,97.60
2017-07-20T00:22:49.014Z,97.50
2017-07-20T00:25:16.451Z,97.40
2017-07-20T00:27:43.882Z,97.50
2017-07-20T00:30:11.319Z,97.70
2017-07-20T00:32:38.736Z,97.80
2017-07-20T00:35:06.278Z,97.70
2017-07-20T00:37:33.720Z,97.80
2017-07-20T00:40:01.188Z,98.00
2017-07-20T00:42:28.625Z,97.90
2017-07-20T00:44:56.054Z,98.00
2017-07-20T00:47:24.269Z,97.90
2017-07-20T00:49:51.693Z,97.90
2017-07-20T00:52:19.124Z,98.20
2017-07-20T00:54:47.327Z,98.50
2017-07-20T00:57:14.772Z,98.40
2017-07-20T00:59:42.202Z,98.40
2017-07-20T01:02:09.656Z,98.60
2017-07-20T01:04:37.067Z,98.50
2017-07-20T01:07:04.493Z,98.70
2017-07-20T01:09:31.938Z,98.80
2017-07-20T01:12:00.139Z,99.00
2017-07-20T01:14:27.596Z,99.00
2017-07-20T01:16:55.044Z,99.10
2017-07-20T01:19:23.233Z,99.50
2017-07-20T01:21:50.674Z,99.40
2017-07-20T01:24:18.100Z,99.30
2017-07-20T01:26:45.528Z,99.40
2017-07-20T01:29:12.997Z,99.30
2017-07-20T01:31:40.469Z,99.20
2017-07-20T01:34:07.905Z,99.10
2017-07-20T01:36:35.346Z,99.30
2017-07-20T01:39:02.773Z,99.50
2017-07-20T01:41:30.227Z,99.40
2017-07-20T01:43:57.660Z,99.10
2017-07-20T01:46:25.087Z,99.20
2017-07-20T01:48:52.512Z,99.40
2017-07-20T01:51:19.964Z,99.40
2017-07-20T01:53:47.389Z,99.50
2017-07-20T01:56:14.813Z,99.60
2017-07-20T01:58:43.013Z,99.90
2017-07-20T02:01:10.440Z,99.90
2017-07-20T02:03:37.866Z,99.90
2017-07-20T02:06:05.298Z,99.90
2017-07-20T02:08:32.720Z,99.90
2017-07-20T02:11:00.909Z,99.90
2017-07-20T02:13:28.336Z,99.90
2017-07-20T02:15:55.761Z,99.90
2017-07-20T02:18:23.196Z,99.90
2017-07-20T02:20:50.617Z,99.90
2017-07-20T02:23:18.801Z,99.90
2017-07-20T02:25:46.232Z,99.90
2017-07-20T02:28:13.661Z,99.90
2017-07-20T02:30:41.106Z,99.90
2017-07-20T02:33:08.531Z,99.90
2017-07-20T02:35:35.955Z,99.90
2017-07-20T02:38:04.161Z,99.90
2017-07-20T02:40:31.777Z,99.90
2017-07-20T02:42:59.189Z,99.90
2017-07-20T02:45:26.969Z,99.90
2017-07-20T02:47:54.392Z,99.90
2017-07-20T02:50:21.824Z,99.90
2017-07-20T02:52:50.017Z,99.90
2017-07-20T02:55:17.444Z,99.90
2017-07-20T02:57:44.883Z,99.80
2017-07-20T03:00:12.323Z,99.90
2017-07-20T03:02:39.745Z,99.80
2017-07-20T03:05:07.176Z,99.70
2017-07-20T03:07:35.372Z,99.80
2017-07-20T03:10:02.795Z,99.50
2017-07-20T03:12:30.221Z,99.40
2017-07-20T03:14:57.645Z,99.40
2017-07-20T03:17:25.126Z,99.40
2017-07-20T03:19:52.552Z,99.40
2017-07-20T03:22:32.049Z,99.50
2017-07-20T03:24:59.472Z,99.40
2017-07-20T03:27:26.903Z,99.40
2017-07-20T03:29:54.372Z,99.30
2017-07-20T03:32:22.539Z,99.30
2017-07-20T03:34:49.977Z,99.30
2017-07-20T03:37:18.169Z,99.10
2017-07-20T03:39:45.600Z,99.10
2017-07-20T03:42:13.796Z,98.90
2017-07-20T03:44:41.239Z,98.90
2017-07-20T03:47:08.667Z,98.50
2017-07-20T03:49:36.083Z,98.40
2017-07-20T03:52:03.512Z,98.10
2017-07-20T03:54:30.945Z,98.10
2017-07-20T03:56:59.146Z,98.20
2017-07-20T03:59:26.567Z,98.20
2017-07-20T04:01:53.987Z,98.40
2017-07-20T04:04:21.426Z,98.40
2017-07-20T04:06:48.857Z,98.40
2017-07-20T04:09:16.293Z,98.30
2017-07-20T04:11:43.722Z,98.50
2017-07-20T04:14:11.150Z,98.50
2017-07-20T04:16:38.586Z,98.50
2017-07-20T04:19:06.015Z,98.40
2017-07-20T04:21:33.436Z,98.40
2017-07-20T04:24:00.867Z,98.40
2017-07-20T04:26:28.337Z,98.20
2017-07-20T04:28:55.764Z,98.20
2017-07-20T04:31:23.190Z,98.20
2017-07-20T04:33:50.621Z,98.10
2017-07-20T04:36:18.355Z,98.10
2017-07-20T04:38:45.774Z,98.10
2017-07-20T04:41:13.965Z,97.80
2017-07-20T04:43:41.380Z,97.80
2017-07-20T04:46:08.828Z,97.30
2017-07-20T04:48:36.244Z,97.10
2017-07-20T04:51:03.679Z,97.10
2017-07-20T04:53:31.881Z,97.30
2017-07-20T04:55:59.296Z,97.30
2017-07-20T04:58:27.497Z,97.40
2017-07-20T05:00:54.973Z,97.40
2017-07-20T05:03:22.445Z,97.40
2017-07-20T05:05:49.878Z,97.20
2017-07-20T05:08:17.324Z,97.30
2017-07-20T05:10:44.737Z,97.10
2017-07-20T05:13:12.173Z,97.00
2017-07-20T05:15:39.612Z,97.00
2017-07-20T05:18:07.072Z,97.00
2017-07-20T05:20:34.505Z,96.90
2017-07-20T05:23:01.947Z,97.00
2017-07-20T05:25:29.386Z,96.80
2017-07-20T05:27:56.806Z,97.00
2017-07-20T05:30:24.245Z,96.90
2017-07-20T05:32:51.679Z,96.60
2017-07-20T05:35:19.102Z,96.60
2017-07-20T05:37:47.305Z,97.20
2017-07-20T05:40:14.725Z,96.90
2017-07-20T05:42:42.155Z,96.70
2017-07-20T05:45:09.579Z,96.30
2017-07-20T05:47:37.008Z,96.10
2017-07-20T05:50:05.210Z,95.70
2017-07-20T05:52:32.645Z,95.70
2017-07-20T05:55:00.836Z,95.50
2017-07-20T05:57:28.261Z,95.40
2017-07-20T05:59:56.461Z,95.40
2017-07-20T06:02:23.889Z,95.30
2017-07-20T06:04:51.317Z,95.10
2017-07-20T06:07:18.765Z,95.00
2017-07-20T06:09:46.181Z,94.80
2017-07-20T06:12:13.632Z,94.60
2017-07-20T06:14:41.059Z,94.60
2017-07-20T06:17:08.484Z,94.50
2017-07-20T06:19:36.690Z,93.90
2017-07-20T06:22:04.118Z,94.10
2017-07-20T06:24:32.341Z,93.60
2017-07-20T06:26:59.793Z,93.60
2017-07-20T06:29:27.234Z,93.70
2017-07-20T06:31:54.677Z,93.70
2017-07-20T06:34:22.110Z,93.60
2017-07-20T06:36:50.318Z,93.40
2017-07-20T06:39:17.752Z,93.30
2017-07-20T06:41:45.287Z,93.30
2017-07-20T06:44:13.538Z,92.60
2017-07-20T06:46:40.971Z,92.60
2017-07-20T06:49:08.736Z,92.50
2017-07-20T06:51:36.184Z,92.60
2017-07-20T06:54:03.622Z,92.40
2017-07-20T06:56:31.062Z,92.60
2017-07-20T06:58:58.497Z,92.60
2017-07-20T07:01:26.729Z,93.10
2017-07-20T07:03:54.157Z,93.10
2017-07-20T07:06:21.588Z,93.10
2017-07-20T07:08:49.026Z,93.20
2017-07-20T07:11:16.453Z,93.20
2017-07-20T07:13:43.890Z,93.40
2017-07-20T07:16:11.317Z,93.80
2017-07-20T07:18:38.750Z,93.80
2017-07-20T07:21:06.212Z,94.10
2017-07-20T07:23:34.405Z,94.30
2017-07-20T07:26:01.838Z,94.30
2017-07-20T07:28:30.058Z,94.20
2017-07-20T07:30:57.502Z,94.00
2017-07-20T07:33:24.907Z,93.80
2017-07-20T07:35:52.360Z,93.70
2017-07-20T07:38:19.798Z,93.80
2017-07-20T07:40:47.241Z,93.90
2017-07-20T07:43:15.666Z,94.00
2017-07-20T07:45:43.120Z,94.00
2017-07-20T07:48:10.548Z,93.90
2017-07-20T07:50:37.985Z,93.50
2017-07-20T07:53:05.410Z,93.50
2017-07-20T07:55:33.607Z,94.30
2017-07-20T07:58:01.042Z,94.30
2017-07-20T08:00:29.229Z,94.70
2017-07-20T08:02:56.660Z,94.70
2017-07-20T08:05:24.894Z,95.90
2017-07-20T08:07:52.297Z,95.90
2017-07-20T08:10:20.504Z,96.10
2017-07-20T08:12:47.984Z,96.10
2017-07-20T08:15:18.038Z,96.10
2017-07-20T08:17:46.300Z,96.40
2017-07-20T08:20:13.753Z,96.30
2017-07-20T08:22:41.189Z,96.40
2017-07-20T08:25:08.630Z,96.40
2017-07-20T08:27:36.043Z,96.40
2017-07-20T08:30:04.256Z,96.70
2017-07-20T08:32:31.728Z,96.70
2017-07-20T08:34:59.339Z,96.50
2017-07-20T08:37:26.742Z,96.30
2017-07-20T08:39:54.168Z,96.00
2017-07-20T08:42:21.584Z,95.80
2017-07-20T08:44:49.765Z,96.50
2017-07-20T08:47:17.955Z,96.10
2017-07-20T08:49:45.380Z,96.10
2017-07-20T08:52:12.813Z,96.20
2017-07-20T08:54:40.248Z,96.20
2017-07-20T08:57:07.693Z,96.20
2017-07-20T08:59:35.105Z,96.00
2017-07-20T09:02:02.549Z,95.70
2017-07-20T09:04:29.992Z,95.80
2017-07-20T09:06:57.418Z,95.40
2017-07-20T09:09:25.736Z,95.10
2017-07-20T09:11:53.165Z,95.10
2017-07-20T09:14:20.606Z,95.20
2017-07-20T09:16:48.822Z,95.10
2017-07-20T09:19:16.306Z,95.00
2017-07-20T09:21:43.740Z,94.80
2017-07-20T09:24:11.168Z,94.70
2017-07-20T09:26:38.885Z,94.20
2017-07-20T09:29:06.303Z,93.70
2017-07-20T09:31:34.031Z,92.90
2017-07-20T09:34:02.230Z,93.30
2017-07-20T09:36:30.271Z,93.20
2017-07-20T09:38:57.673Z,93.30
2017-07-20T09:41:25.272Z,93.40
2017-07-20T09:43:52.680Z,93.60
2017-07-20T09:46:20.150Z,94.10
2017-07-20T09:48:47.548Z,94.60
2017-07-20T09:51:14.980Z,95.20
2017-07-20T09:53:42.504Z,95.70
2017-07-20T09:56:09.945Z,95.70
2017-07-20T09:58:37.401Z,95.80
2017-07-20T10:01:04.815Z,95.70
2017-07-20T10:03:32.247Z,95.30
2017-07-20T10:06:00.436Z,94.80
2017-07-20T10:08:27.888Z,94.50
2017-07-20T10:10:56.086Z,94.40
2017-07-20T10:13:23.821Z,94.30
2017-07-20T10:15:52.012Z,94.40
2017-07-20T10:18:19.454Z,94.40
2017-07-20T10:20:47.628Z,93.50
2017-07-20T10:23:15.081Z,93.50
2017-07-20T10:25:42.516Z,93.10
2017-07-20T10:28:09.936Z,93.30
2017-07-20T10:30:37.375Z,93.30
2017-07-20T10:33:04.804Z,93.60
2017-07-20T10:35:33.016Z,93.60
2017-07-20T10:38:00.432Z,93.60
2017-07-20T10:40:28.648Z,94.40
2017-07-20T10:42:56.076Z,94.40
2017-07-20T10:45:23.511Z,94.30
2017-07-20T10:47:51.713Z,94.10
2017-07-20T10:50:19.135Z,94.50
2017-07-20T10:52:47.331Z,93.30
2017-07-20T10:55:14.755Z,93.40
2017-07-20T10:57:42.181Z,93.60
2017-07-20T11:00:09.608Z,94.00
2017-07-20T11:02:37.090Z,94.00
2017-07-20T11:05:04.525Z,92.50
2017-07-20T11:07:31.943Z,92.80
2017-07-20T11:10:00.169Z,93.40
2017-07-20T11:12:27.582Z,93.30
2017-07-20T11:14:55.775Z,93.60
2017-07-20T11:17:23.218Z,93.60
2017-07-20T11:19:51.395Z,93.90
2017-07-20T11:22:18.818Z,93.50
2017-07-20T11:24:46.239Z,93.60
2017-07-20T11:27:13.694Z,93.00
2017-07-20T11:29:41.109Z,93.00
2017-07-20T11:32:09.306Z,92.30
2017-07-20T11:34:36.725Z,92.30
2017-07-20T11:37:04.261Z,91.90
2017-07-20T11:39:31.696Z,92.30
2017-07-20T11:41:59.153Z,91.70
2017-07-20T11:44:26.549Z,91.60
2017-07-20T11:46:53.980Z,92.20
2017-07-20T11:49:22.205Z,92.20
2017-07-20T11:51:49.628Z,91.10
2017-07-20T11:54:17.053Z,91.50
2017-07-20T11:56:44.489Z,90.70
2017-07-20T11:59:11.903Z,90.30
2017-07-20T12:01:39.425Z,89.20
2017-07-20T12:04:06.844Z,88.40
2017-07-20T12:06:34.272Z,88.50
2017-07-20T12:09:01.782Z,89.10
2017-07-20T12:11:29.215Z,88.80
2017-07-20T12:13:56.700Z,87.00
2017-07-20T12:16:24.120Z,83.50
2017-07-20T12:18:51.540Z,80.50
2017-07-20T12:21:19.068Z,80.10
2017-07-20T12:23:46.520Z,80.50
2017-07-20T12:26:13.936Z,82.30
2017-07-20T12:28:42.112Z,82.50
2017-07-20T12:31:10.305Z,81.60
2017-07-20T12:33:37.744Z,81.70
2017-07-20T12:36:05.932Z,82.10
2017-07-20T12:38:33.352Z,82.10
2017-07-20T12:41:00.781Z,83.20
2017-07-20T12:43:28.225Z,84.20
2017-07-20T12:45:55.649Z,85.00
2017-07-20T12:48:23.156Z,85.50
2017-07-20T12:50:50.614Z,83.20
2017-07-20T12:53:18.048Z,80.80
2017-07-20T12:55:45.451Z,78.00
2017-07-20T12:58:13.637Z,76.40
2017-07-20T13:00:41.055Z,76.30
2017-07-20T13:03:08.497Z,72.70
2017-07-20T13:05:35.908Z,69.10
2017-07-20T13:08:03.337Z,67.00
2017-07-20T13:10:30.776Z,65.20
2017-07-20T13:12:58.198Z,64.10
2017-07-20T13:15:25.714Z,64.00
2017-07-20T13:17:53.904Z,59.80
2017-07-20T13:20:21.328Z,60.40
2017-07-20T13:22:48.847Z,59.50
2017-07-20T13:25:16.280Z,56.20
2017-07-20T13:27:43.781Z,56.10
2017-07-20T13:30:11.192Z,59.30
2017-07-20T13:32:38.676Z,61.70
2017-07-20T13:35:06.094Z,60.20
2017-07-20T13:37:33.520Z,58.80
2017-07-20T13:40:00.967Z,57.10
2017-07-20T13:42:28.378Z,57.40
2017-07-20T13:44:55.797Z,59.30
2017-07-20T13:47:23.993Z,63.20
2017-07-20T13:49:51.419Z,63.20
2017-07-20T13:52:18.945Z,63.80
2017-07-20T13:54:46.369Z,61.90
2017-07-20T13:57:13.861Z,59.20
2017-07-20T13:59:41.280Z,58.40
2017-07-20T14:02:09.491Z,56.90
2017-07-20T14:04:36.938Z,56.90
2017-07-20T14:07:04.358Z,57.80
2017-07-20T14:09:31.782Z,60.70
2017-07-20T14:11:59.222Z,62.60
2017-07-20T14:14:26.642Z,65.50
2017-07-20T14:16:54.133Z,68.70
2017-07-20T14:19:21.553Z,69.20
2017-07-20T14:21:48.977Z,71.10
2017-07-20T14:24:17.172Z,74.40
2017-07-20T14:26:44.608Z,74.30
2017-07-20T14:29:12.824Z,74.30
2017-07-20T14:31:41.098Z,74.20
2017-07-20T14:34:08.571Z,66.20
2017-07-20T14:36:36.060Z,59.80
2017-07-20T14:39:03.680Z,56.80
2017-07-20T14:41:31.109Z,54.00
2017-07-20T14:43:59.299Z,48.30
2017-07-20T14:46:27.487Z,46.20
2017-07-20T14:48:54.969Z,46.10
2017-07-20T14:51:22.549Z,47.30
2017-07-20T14:53:49.987Z,46.50
2017-07-20T14:56:17.453Z,47.60
2017-07-20T14:58:44.887Z,48.50
2017-07-20T15:01:13.105Z,45.40
2017-07-20T15:03:40.550Z,45.40
2017-07-20T15:06:08.851Z,47.50
2017-07-20T15:08:36.286Z,47.50
2017-07-20T15:11:03.773Z,48.00
2017-07-20T15:13:31.230Z,45.70
2017-07-20T15:15:58.686Z,46.10
2017-07-20T15:18:26.141Z,46.00
2017-07-20T15:20:53.548Z,46.30
2017-07-20T15:23:20.976Z,47.40
2017-07-20T15:25:48.524Z,46.70
2017-07-20T15:28:15.947Z,47.20
2017-07-20T15:30:43.409Z,48.90
2017-07-20T15:33:10.828Z,49.70
2017-07-20T15:35:38.286Z,49.50
2017-07-20T15:38:05.705Z,51.80
2017-07-20T15:40:33.200Z,53.20
2017-07-20T15:43:00.646Z,54.70
2017-07-20T15:45:28.072Z,56.70
2017-07-20T15:47:56.257Z,60.10
2017-07-20T15:50:23.684Z,60.00
2017-07-20T15:52:51.885Z,66.00
2017-07-20T15:55:19.364Z,66.00
2017-07-20T15:57:47.120Z,67.20
2017-07-20T16:00:14.524Z,68.90
2017-07-20T16:02:41.949Z,70.30
2017-07-20T16:05:09.376Z,72.00
2017-07-20T16:07:36.811Z,72.60
2017-07-20T16:10:05.016Z,72.90
2017-07-20T16:12:32.456Z,72.90
2017-07-20T16:14:59.925Z,72.70
2017-07-20T16:17:27.344Z,71.70
2017-07-20T16:19:55.681Z,68.90
2017-07-20T16:22:23.092Z,69.40
2017-07-20T16:24:51.281Z,71.60
2017-07-20T16:27:18.757Z,71.50
2017-07-20T16:29:46.184Z,74.50
2017-07-20T16:32:14.364Z,79.80
2017-07-20T16:34:41.792Z,79.80
2017-07-20T16:37:09.228Z,80.60
2017-07-20T16:39:36.661Z,79.80
2017-07-20T16:42:04.138Z,78.60
2017-07-20T16:44:31.565Z,80.30
2017-07-20T16:46:59.110Z,82.00
2017-07-20T16:49:26.541Z,81.90
2017-07-20T16:51:54.719Z,82.00
2017-07-20T16:54:22.923Z,83.00
2017-07-20T16:56:50.354Z,83.00
2017-07-20T16:59:18.560Z,84.80
2017-07-20T17:01:45.972Z,84.80
2017-07-20T17:04:13.393Z,84.70
2017-07-20T17:06:40.826Z,84.80
2017-07-20T17:09:08.274Z,84.80
2017-07-20T17:11:35.725Z,83.60
2017-07-20T17:14:03.225Z,81.30
2017-07-20T17:16:30.680Z,80.20
2017-07-20T17:18:58.101Z,79.50
2017-07-20T17:21:25.524Z,78.80
2017-07-20T17:23:53.730Z,78.20
2017-07-20T17:26:21.151Z,78.10
2017-07-20T17:28:48.689Z,77.60
2017-07-20T17:31:16.119Z,77.40
2017-07-20T17:33:43.536Z,76.40
2017-07-20T17:36:11.001Z,75.10
2017-07-20T17:38:38.423Z,72.10
2017-07-20T17:41:16.311Z,69.50
2017-07-20T17:43:43.746Z,67.10
2017-07-20T17:46:11.216Z,66.60
2017-07-20T17:48:38.641Z,64.80
2017-07-20T17:51:06.128Z,62.10
2017-07-20T17:53:33.544Z,61.90
2017-07-20T17:56:01.008Z,63.70
2017-07-20T17:58:28.417Z,63.30
2017-07-20T18:00:56.645Z,61.70
2017-07-20T18:03:24.500Z,61.60
2017-07-20T18:05:51.937Z,60.00
2017-07-20T18:08:20.121Z,61.20
2017-07-20T18:10:47.634Z,61.10
2017-07-20T18:13:15.059Z,60.50
2017-07-20T18:15:42.499Z,61.60
2017-07-20T18:18:09.954Z,63.00
2017-07-20T18:20:37.381Z,62.60
2017-07-20T18:23:04.824Z,62.10
2017-07-20T18:25:33.024Z,62.90
2017-07-20T18:28:00.449Z,62.80
2017-07-20T18:30:28.660Z,61.60
2017-07-20T18:32:56.088Z,62.20
2017-07-20T18:35:23.508Z,62.70
2017-07-20T18:37:51.809Z,62.70
2017-07-20T18:40:20.009Z,65.00
2017-07-20T18:42:47.444Z,65.00
2017-07-20T18:45:15.634Z,65.90
2017-07-20T18:47:43.053Z,65.90
2017-07-20T18:50:10.485Z,67.40
2017-07-20T18:52:37.933Z,70.10
2017-07-20T18:55:05.353Z,72.20
2017-07-20T18:57:33.548Z,76.30
2017-07-20T19:00:01.036Z,76.30
2017-07-20T19:02:28.470Z,77.50
2017-07-20T19:04:55.885Z,78.40
2017-07-20T19:07:24.100Z,80.20
2017-07-20T19:09:51.522Z,80.20
2017-07-20T19:12:19.746Z,81.40
2017-07-20T19:14:47.198Z,81.40
2017-07-20T19:17:14.614Z,82.20
2017-07-20T19:19:42.102Z,82.60
2017-07-20T19:22:09.538Z,83.00
2017-07-20T19:24:36.978Z,83.40
2017-07-20T19:27:04.405Z,84.50
2017-07-20T19:29:31.842Z,84.40
2017-07-20T19:31:59.306Z,84.80
2017-07-20T19:34:26.748Z,84.90
2017-07-20T19:36:54.185Z,84.70
2017-07-20T19:39:21.601Z,86.40
2017-07-20T19:41:49.796Z,86.80
2017-07-20T19:44:17.221Z,86.60
2017-07-20T19:46:45.462Z,87.10
2017-07-20T19:49:12.923Z,86.80
2017-07-20T19:51:40.353Z,87.70
2017-07-20T19:54:07.777Z,87.70
2017-07-20T19:56:35.969Z,89.30
2017-07-20T19:59:03.466Z,89.20
2017-07-20T20:01:30.936Z,89.70
2017-07-20T20:03:58.381Z,90.20
2017-07-20T20:06:25.838Z,89.80
2017-07-20T20:08:53.262Z,90.00
2017-07-20T20:11:20.700Z,90.50
2017-07-20T20:13:48.178Z,90.80
2017-07-20T20:16:15.611Z,90.70
2017-07-20T20:18:43.801Z,91.10
2017-07-20T20:21:11.233Z,91.10
2017-07-20T20:23:39.429Z,91.50
2017-07-20T20:26:06.873Z,91.50
2017-07-20T20:28:35.053Z,91.80
2017-07-20T20:31:02.481Z,91.80
2017-07-20T20:33:30.708Z,92.00
2017-07-20T20:35:58.154Z,92.00
2017-07-20T20:38:25.593Z,92.70
2017-07-20T20:40:53.014Z,92.70
2017-07-20T20:43:21.248Z,93.00
2017-07-20T20:45:48.697Z,92.60
2017-07-20T20:48:16.120Z,92.60
2017-07-20T20:50:44.328Z,92.90
2017-07-20T20:53:11.733Z,92.90
2017-07-20T20:55:39.939Z,93.40
2017-07-20T20:58:07.389Z,93.30
2017-07-20T21:00:34.885Z,93.30
2017-07-20T21:03:02.518Z,93.00
2017-07-20T21:05:30.068Z,93.30
2017-07-20T21:07:57.666Z,93.40
2017-07-20T21:10:25.245Z,93.60
2017-07-20T21:12:52.809Z,93.60
2017-07-20T21:15:20.547Z,93.40
2017-07-20T21:17:48.177Z,93.00
2017-07-20T21:20:15.792Z,92.70
2017-07-20T21:22:43.416Z,92.60
2017-07-20T21:25:10.974Z,92.80
2017-07-20T21:27:38.586Z,93.40
2017-07-20T21:30:06.194Z,93.20
2017-07-20T21:32:54.455Z,93.00
2017-07-20T21:35:21.973Z,93.60
2017-07-20T21:37:49.385Z,93.70
2017-07-20T21:40:16.823Z,93.80
2017-07-20T21:42:44.247Z,93.80
2017-07-20T21:45:11.684Z,93.20
2017-07-20T21:47:39.153Z,93.30
2017-07-20T21:50:06.583Z,93.10
2017-07-20T21:52:34.777Z,92.60
2017-07-20T21:55:02.184Z,92.80
2017-07-20T21:57:29.611Z,92.60
2017-07-20T21:59:58.748Z,92.80
2017-07-20T22:02:26.307Z,92.40
2017-07-20T22:04:53.735Z,93.20
2017-07-20T22:07:21.205Z,92.90
2017-07-20T22:09:48.633Z,93.50
2017-07-20T22:12:16.070Z,93.60
2017-07-20T22:14:43.616Z,93.20
2017-07-20T22:17:11.047Z,89.60
2017-07-20T22:19:39.240Z,86.70
2017-07-20T22:22:06.698Z,86.60
2017-07-20T22:24:34.101Z,85.80
2017-07-20T22:27:01.988Z,84.60
2017-07-20T22:29:29.399Z,83.80
2017-07-20T22:31:56.817Z,83.50
2017-07-20T22:34:24.240Z,83.80
2017-07-20T22:36:51.660Z,82.60
2017-07-20T22:39:19.088Z,81.50
2017-07-20T22:41:46.531Z,80.70
2017-07-20T22:44:14.720Z,80.70
2017-07-20T22:46:42.153Z,80.50
2017-07-20T22:49:10.345Z,81.20
2017-07-20T22:51:37.794Z,81.10
2017-07-20T22:54:05.205Z,81.60
2017-07-20T22:56:32.639Z,82.00
2017-07-20T22:59:00.068Z,82.50
2017-07-20T23:01:27.502Z,82.80
2017-07-20T23:04:01.370Z,83.70
2017-07-20T23:06:28.797Z,82.70
2017-07-20T23:08:56.219Z,82.70
2017-07-20T23:11:24.429Z,83.90
2017-07-20T23:13:51.856Z,83.00
2017-07-20T23:16:20.034Z,83.20
2017-07-20T23:18:47.467Z,83.20
2017-07-20T23:21:14.892Z,83.60
2017-07-20T23:23:42.321Z,84.00
2017-07-20T23:26:09.759Z,84.50
2017-07-20T23:28:37.932Z,85.10
2017-07-20T23:31:05.358Z,85.10
2017-07-20T23:33:32.784Z,85.40
2017-07-20T23:36:00.201Z,85.60
2017-07-20T23:38:27.637Z,85.80
2017-07-20T23:40:55.833Z,86.50
2017-07-20T23:43:23.281Z,86.50
2017-07-20T23:45:50.710Z,86.70
2017-07-20T23:48:18.142Z,87.00
2017-07-20T23:50:45.568Z,87.20
2017-07-20T23:53:12.985Z,87.50
2017-07-20T23:55:41.197Z,87.50
2017-07-20T23:58:08.608Z,87.50
